Observations for EDINBURGH AIRPORT, United Kingdom (EGPH)

EGPH 260450Z 25007KT 7000 BKN007 14/14 Q1017
EGPH 260420Z 24008KT 8000 OVC007 15/14 Q1017
EGPH 260350Z 26005KT 7000 BKN007 15/14 Q1017
EGPH 260320Z VRB03KT 6000 OVC004 14/14 Q1017
EGPH 260250Z 26007KT 4300 BR BKN004 14/14 Q1017 
EGPH 260220Z 26005KT 8000 FEW008 14/14 Q1017
EGPH 260050Z 26004KT CAVOK 14/14 Q1017  
EGPH 260020Z 26002KT CAVOK 15/14 Q1017  
EGPH 252350Z 24003KT CAVOK 15/14 Q1017  
EGPH 252320Z 23004KT CAVOK 14/14 Q1017  
EGPH 252250Z 25003KT CAVOK 14/14 Q1017  
EGPH 252220Z VRB02KT CAVOK 15/15 Q1017  
EGPH 252150Z VRB02KT CAVOK 16/16 Q1017  
EGPH 252120Z 24004KT 8000 NSC 15/15 Q1017   
EGPH 252050Z 33001KT CAVOK 15/15 Q1017  
EGPH 252020Z 33002KT 8000 NSC 15/15 Q1017   
EGPH 251950Z VRB01KT CAVOK 16/16 Q1016  
EGPH 251920Z VRB01KT CAVOK 17/16 Q1016  
EGPH 251850Z 03001KT CAVOK 18/16 Q1016  
EGPH 251820Z VRB02KT CAVOK 19/17 Q1016  
EGPH 251750Z 02004KT CAVOK 19/16 Q1016  
EGPH 251720Z 03004KT CAVOK 20/17 Q1016  
EGPH 251650Z 05005KT 9999 FEW004 20/17 Q1016
EGPH 251620Z 03008KT CAVOK 19/16 Q1016  
EGPH 251550Z 04008KT CAVOK 20/17 Q1016  
EGPH 251520Z 04006KT CAVOK 20/17 Q1016  
EGPH 251450Z 05009KT CAVOK 21/17 Q1017  
EGPH 251420Z 04008KT 010V070 CAVOK 21/16 Q1017  
EGPH 251350Z 04008KT CAVOK 22/17 Q1017  
EGPH 251320Z 06007KT CAVOK 22/16 Q1017  
EGPH 251250Z 06009KT CAVOK 21/16 Q1018  
EGPH 251220Z 04008KT CAVOK 21/16 Q1018  
EGPH 251150Z 05008KT 9999 FEW001 20/16 Q1018
EGPH 251120Z 04008KT 9000 FEW001 19/16 Q1018
EGPH 251050Z 04009KT 9999 7000N NSC 18/16 Q1018 
EGPH 251020Z 05009KT 9999 6000N NSC 18/16 Q1018 
EGPH 250950Z 04006KT 360V070 7000 FEW001 18/16 Q1018
EGPH 250920Z 02006KT 360V060 7000 FEW001 16/16 Q1018
EGPH 250850Z 03005KT 360V060 6000 FEW001 16/16 Q1019
EGPH 250820Z VRB03KT 0650 R06/0750 FG VV/// 15/15 Q1019 
EGPH 250750Z 04003KT 0350 R06/0400 FG VV/// 15/15 Q1018 
EGPH 250720Z VRB03KT 0450 R06/1100 FG VV/// 14/14 Q1018 
EGPH 250650Z VRB02KT 0150 R06/0275 -DZ FG VV/// 14/14 Q1018 
EGPH 250620Z VRB03KT 0150 R06/0275 FG VV/// 14/14 Q1018 
EGPH 250550Z VRB01KT 0200 R06/0375 FG VV/// 13/13 Q1018 
EGPH 250520Z VRB01KT 0150 R06/0400 FG VV/// 13/13 Q1018 
EGPH 250450Z VRB03KT 0100 R06/0375 FG VV/// 13/13 Q1018 
EGPH 250420Z 15003KT 0150 R06/0275 FG VV/// 13/13 Q1018